メインページ
METAR-TAF:

METAR-TAF

空港 :

ヒヒフォ空港

ウォリス, フランス

緯度: 13-14S, 経度: 176-10W, 海抜: 23m

METAR: 見つかりません

時間: 05:10 (17:10 UTC)

予報

当レポートは6時間10分前の11:00(UTC)に作成
予報は22日の 12時(UTC)から 23日の 12時(UTC)まで有効
南東の風 5kt
視程10km以上
高度3500ftの雲はほとんどない
22日の 20時(UTC)から 22日の 22時(UTC)まで徐々に
北東の風 5kt
22日の 12時(UTC)から 23日の 12時(UTC)まで一時的に
高度2000ftの雲はほとんどない, 塔状積雲.
にわか雨

TAF: NLWW 221100Z 2212/2312 13005KT 9999 FEW035 BECMG 2220/2222 04005KT TEMPO 2212/2312 SHRA FEW020TCU

4,000以上の空港の気象観測と天気予報(METAR報とTAF報)

利用可能な観測所は地図上に黄色い丸と赤い丸で示す。

丸の上にカーソルを重ねると観測所名を参照できる。

次にクリックすると気象観測と天気予報を参照できる。

マップの切り替え:黒色「×」印の緑ボタンをクリックして拡大、「-」印の緑ボタンをクリックして縮小、緑色の三角印をクリックして隣りの地図に切り替え


METAR-TAF: